PWSweather.com
Personal Weather Stations
Station Observations
IHTIMAN1
Neighbourhood 1, IhtimanBG 2050

Neighbourhood 1IhtimanBG 2050

Lat: 42.436852, Lon: 23.817921

Elevation: 2066

Station Type: Oregon Scientific WMR968

http://ihtiman-meteo.com

High Low Average
Temperature 67.8°F19.9°C 32.0°F0.0°C 50.4°F10.2°C
Dew Point 38.5°F3.6°C 28.7°F-1.8°C 34.0°F1.1°C
Winds 10.4 mph 16.7 kmh Calm Calm 4.0 mph SSW6.4 kmh SSW
Wind Gusts 15.0 mph24.1 kmh -- 5.0 mph8.0 kmh
Humidity 94% 32% 58%
Pressure 30.21 in1023.0 mb 30.12 in1020.0 mb -
Precipitation 0.00 in0.0 mm - -
Hour Temp Dew Point Humidity Winds Wind Gusts Pressure Precip Precip Rate Daily Precip Total
12:00 AM 39.4°F4.1°C 29.7°F-1.3°C 68% Calm Calm -- 30.21 in1023.0 mb - 0.00 in0.0 mm 0.00 in0.0 mm
12:10 AM 38.8°F3.8°C 29.5°F-1.4°C 69% Calm Calm -- 30.21 in1023.0 mb - 0.00 in0.0 mm 0.00 in0.0 mm
12:20 AM 38.5°F3.6°C 29.5°F-1.4°C 70% Calm Calm -- 30.21 in1023.0 mb - 0.00 in0.0 mm 0.00 in0.0 mm
12:30 AM 38.1°F3.4°C 29.2°F-1.6°C 70% Calm Calm -- 30.21 in1023.0 mb - 0.00 in0.0 mm 0.00 in0.0 mm
12:40 AM 37.9°F3.3°C 29.4°F-1.4°C 71% Calm Calm -- 30.21 in1023.0 mb - 0.00 in0.0 mm 0.00 in0.0 mm
12:50 AM 37.9°F3.3°C 29.7°F-1.3°C 72% Calm Calm -- 30.21 in1023.0 mb - 0.00 in0.0 mm 0.00 in0.0 mm
01:00 AM 38.1°F3.4°C 30.2°F-1.0°C 73% Calm Calm -- 30.21 in1023.0 mb - 0.00 in0.0 mm 0.00 in0.0 mm
01:10 AM 37.8°F3.2°C 30.2°F-1.0°C 74% Calm Calm -- 30.21 in1023.0 mb - 0.00 in0.0 mm 0.00 in0.0 mm
01:20 AM 37.3°F2.9°C 30.1°F-1.1°C 75% Calm Calm -- 30.21 in1023.0 mb - 0.00 in0.0 mm 0.00 in0.0 mm
01:30 AM 36.9°F2.7°C 30.0°F-1.1°C 76% Calm Calm -- 30.18 in1022.0 mb - 0.00 in0.0 mm 0.00 in0.0 mm
01:40 AM 36.5°F2.5°C 30.0°F-1.1°C 77% Calm Calm -- 30.18 in1022.0 mb - 0.00 in0.0 mm 0.00 in0.0 mm
01:50 AM 36.5°F2.5°C 30.0°F-1.1°C 77% Calm Calm -- 30.18 in1022.0 mb - 0.00 in0.0 mm 0.00 in0.0 mm
02:10 AM 36.1°F2.3°C 29.9°F-1.2°C 78% Calm Calm -- 30.18 in1022.0 mb - 0.00 in0.0 mm 0.00 in0.0 mm
02:20 AM 35.8°F2.1°C 30.0°F-1.1°C 79% Calm Calm -- 30.18 in1022.0 mb - 0.00 in0.0 mm 0.00 in0.0 mm
02:30 AM 35.4°F1.9°C 29.9°F-1.2°C 80% Calm Calm -- 30.18 in1022.0 mb - 0.00 in0.0 mm 0.00 in0.0 mm
02:40 AM 35.1°F1.7°C 29.8°F-1.2°C 81% Calm Calm -- 30.18 in1022.0 mb - 0.00 in0.0 mm 0.00 in0.0 mm
02:50 AM 34.9°F1.6°C 29.9°F-1.2°C 82% Calm Calm -- 30.18 in1022.0 mb - 0.00 in0.0 mm 0.00 in0.0 mm
03:00 AM 34.9°F1.6°C 29.9°F-1.2°C 82% Calm Calm -- 30.18 in1022.0 mb - 0.00 in0.0 mm 0.00 in0.0 mm
03:10 AM 35.1°F1.7°C 30.4°F-0.9°C 83% Calm Calm -- 30.18 in1022.0 mb - 0.00 in0.0 mm 0.00 in0.0 mm
03:20 AM 34.7°F1.5°C 30.4°F-0.9°C 84% Calm Calm -- 30.18 in1022.0 mb - 0.00 in0.0 mm 0.00 in0.0 mm
03:30 AM 34.0°F1.1°C 29.7°F-1.3°C 84% Calm Calm -- 30.18 in1022.0 mb - 0.00 in0.0 mm 0.00 in0.0 mm
03:40 AM 33.8°F1.0°C 29.5°F-1.4°C 84% Calm Calm -- 30.18 in1022.0 mb - 0.00 in0.0 mm 0.00 in0.0 mm
03:50 AM 33.6°F0.9°C 29.6°F-1.3°C 85% Calm Calm -- 30.18 in1022.0 mb - 0.00 in0.0 mm 0.00 in0.0 mm
04:00 AM 33.4°F0.8°C 29.4°F-1.4°C 85% Calm Calm -- 30.18 in1022.0 mb - 0.00 in0.0 mm 0.00 in0.0 mm
04:10 AM 33.4°F0.8°C 29.4°F-1.4°C 85% Calm Calm -- 30.18 in1022.0 mb - 0.00 in0.0 mm 0.00 in0.0 mm
04:20 AM 33.3°F0.7°C 29.5°F-1.4°C 86% Calm Calm -- 30.18 in1022.0 mb - 0.00 in0.0 mm 0.00 in0.0 mm
04:30 AM 33.3°F0.7°C 29.5°F-1.4°C 86% Calm Calm -- 30.18 in1022.0 mb - 0.00 in0.0 mm 0.00 in0.0 mm
04:40 AM 33.1°F0.6°C 29.6°F-1.3°C 87% Calm Calm -- 30.18 in1022.0 mb - 0.00 in0.0 mm 0.00 in0.0 mm
04:50 AM 32.9°F0.5°C 29.5°F-1.4°C 87% Calm Calm -- 30.18 in1022.0 mb - 0.00 in0.0 mm 0.00 in0.0 mm
05:00 AM 32.7°F0.4°C 29.3°F-1.5°C 87% Calm Calm -- 30.18 in1022.0 mb - 0.00 in0.0 mm 0.00 in0.0 mm
05:10 AM 32.4°F0.2°C 28.9°F-1.7°C 87% Calm Calm -- 30.18 in1022.0 mb - 0.00 in0.0 mm 0.00 in0.0 mm
05:20 AM 32.2°F0.1°C 28.7°F-1.8°C 87% 1.2 mph NW1.9 kmh NW 2.3 mph3.7 kmh 30.18 in1022.0 mb - 0.00 in0.0 mm 0.00 in0.0 mm
05:30 AM 32.1°F0.1°C 28.9°F-1.7°C 88% Calm Calm -- 30.15 in1021.0 mb - 0.00 in0.0 mm 0.00 in0.0 mm
05:40 AM 32.0°F0.0°C 28.8°F-1.8°C 88% Calm Calm -- 30.15 in1021.0 mb - 0.00 in0.0 mm 0.00 in0.0 mm
05:50 AM 32.2°F0.1°C 29.0°F-1.7°C 88% Calm Calm -- 30.15 in1021.0 mb - 0.00 in0.0 mm 0.00 in0.0 mm
06:00 AM 32.2°F0.1°C 29.0°F-1.7°C 88% Calm Calm -- 30.18 in1022.0 mb - 0.00 in0.0 mm 0.00 in0.0 mm
06:10 AM 32.4°F0.2°C 29.5°F-1.4°C 89% Calm Calm -- 30.18 in1022.0 mb - 0.00 in0.0 mm 0.00 in0.0 mm
06:20 AM 32.5°F0.3°C 29.7°F-1.3°C 89% Calm Calm -- 30.18 in1022.0 mb - 0.00 in0.0 mm 0.00 in0.0 mm
06:30 AM 32.2°F0.1°C 29.3°F-1.5°C 89% Calm Calm -- 30.18 in1022.0 mb - 0.00 in0.0 mm 0.00 in0.0 mm
06:40 AM 32.5°F0.3°C 29.9°F-1.2°C 90% 2.3 mph NW3.7 kmh NW 3.5 mph5.6 kmh 30.18 in1022.0 mb - 0.00 in0.0 mm 0.00 in0.0 mm
06:50 AM 32.5°F0.3°C 30.2°F-1.0°C 91% Calm Calm -- 30.18 in1022.0 mb - 0.00 in0.0 mm 0.00 in0.0 mm
07:00 AM 32.7°F0.4°C 30.7°F-0.7°C 92% Calm Calm -- 30.18 in1022.0 mb - 0.00 in0.0 mm 0.00 in0.0 mm
07:10 AM 33.4°F0.8°C 31.6°F-0.2°C 93% Calm Calm -- 30.18 in1022.0 mb - 0.00 in0.0 mm 0.00 in0.0 mm
07:20 AM 34.4°F1.3°C 32.9°F0.5°C 94% Calm Calm -- 30.18 in1022.0 mb - 0.00 in0.0 mm 0.00 in0.0 mm
07:30 AM 35.6°F2.0°C 34.1°F1.2°C 94% Calm Calm -- 30.18 in1022.0 mb - 0.00 in0.0 mm 0.00 in0.0 mm
07:40 AM 37.3°F2.9°C 35.5°F1.9°C 93% Calm Calm -- 30.18 in1022.0 mb - 0.00 in0.0 mm 0.00 in0.0 mm
07:50 AM 38.7°F3.7°C 36.1°F2.3°C 90% Calm Calm -- 30.18 in1022.0 mb - 0.00 in0.0 mm 0.00 in0.0 mm
08:00 AM 40.1°F4.5°C 36.3°F2.4°C 86% Calm Calm -- 30.15 in1021.0 mb - 0.00 in0.0 mm 0.00 in0.0 mm
08:10 AM 40.9°F4.9°C 35.2°F1.8°C 80% 2.3 mph NW3.7 kmh NW 3.5 mph5.6 kmh 30.15 in1021.0 mb - 0.00 in0.0 mm 0.00 in0.0 mm
08:20 AM 42.3°F5.7°C 35.3°F1.8°C 76% Calm Calm -- 30.18 in1022.0 mb - 0.00 in0.0 mm 0.00 in0.0 mm
08:30 AM 43.6°F6.4°C 35.6°F2.0°C 73% Calm Calm -- 30.18 in1022.0 mb - 0.00 in0.0 mm 0.00 in0.0 mm
08:40 AM 45.9°F7.7°C 36.0°F2.2°C 68% Calm Calm -- 30.18 in1022.0 mb - 0.00 in0.0 mm 0.00 in0.0 mm
08:50 AM 47.8°F8.8°C 35.4°F1.9°C 62% Calm Calm -- 30.18 in1022.0 mb - 0.00 in0.0 mm 0.00 in0.0 mm
09:00 AM 48.8°F9.3°C 33.8°F1.0°C 56% Calm Calm -- 30.18 in1022.0 mb - 0.00 in0.0 mm 0.00 in0.0 mm
09:10 AM 52.4°F11.3°C 35.3°F1.8°C 52% Calm Calm 3.5 mph5.6 kmh 30.18 in1022.0 mb - 0.00 in0.0 mm 0.00 in0.0 mm
09:20 AM 53.9°F12.2°C 34.6°F1.4°C 48% 2.3 mph S3.7 kmh S 2.3 mph3.7 kmh 30.18 in1022.0 mb - 0.00 in0.0 mm 0.00 in0.0 mm
09:30 AM 54.1°F12.3°C 34.3°F1.3°C 47% 2.3 mph WSW3.7 kmh WSW 3.5 mph5.6 kmh 30.18 in1022.0 mb - 0.00 in0.0 mm 0.00 in0.0 mm
09:40 AM 55.8°F13.2°C 35.4°F1.9°C 46% 2.3 mph S3.7 kmh S 4.6 mph7.4 kmh 30.18 in1022.0 mb - 0.00 in0.0 mm 0.00 in0.0 mm
09:50 AM 56.7°F13.7°C 36.1°F2.3°C 46% 2.3 mph S3.7 kmh S 4.6 mph7.4 kmh 30.18 in1022.0 mb - 0.00 in0.0 mm 0.00 in0.0 mm
10:00 AM 58.1°F14.5°C 37.4°F3.0°C 46% 3.5 mph SSE5.6 kmh SSE 3.5 mph5.6 kmh 30.18 in1022.0 mb - 0.00 in0.0 mm 0.00 in0.0 mm
10:10 AM 59.9°F15.5°C 38.5°F3.6°C 45% 3.5 mph SE5.6 kmh SE 5.8 mph9.3 kmh 30.18 in1022.0 mb - 0.00 in0.0 mm 0.00 in0.0 mm
10:20 AM 61.0°F16.1°C 37.7°F3.2°C 42% 4.6 mph SE7.4 kmh SE 5.8 mph9.3 kmh 30.18 in1022.0 mb - 0.00 in0.0 mm 0.00 in0.0 mm
10:30 AM 61.8°F16.6°C 35.9°F2.2°C 38% 3.5 mph SE5.6 kmh SE 5.8 mph9.3 kmh 30.18 in1022.0 mb - 0.00 in0.0 mm 0.00 in0.0 mm
10:40 AM 63.0°F17.2°C 34.9°F1.6°C 35% 3.5 mph S5.6 kmh S 5.8 mph9.3 kmh 30.18 in1022.0 mb - 0.00 in0.0 mm 0.00 in0.0 mm
10:50 AM 63.1°F17.3°C 35.0°F1.7°C 35% 4.6 mph SE7.4 kmh SE 5.8 mph9.3 kmh 30.18 in1022.0 mb - 0.00 in0.0 mm 0.00 in0.0 mm
11:00 AM 63.9°F17.7°C 35.7°F2.1°C 35% 4.6 mph S7.4 kmh S 5.8 mph9.3 kmh 30.18 in1022.0 mb - 0.00 in0.0 mm 0.00 in0.0 mm
11:10 AM 64.2°F17.9°C 35.2°F1.8°C 34% 3.5 mph SE5.6 kmh SE 4.6 mph7.4 kmh 30.18 in1022.0 mb - 0.00 in0.0 mm 0.00 in0.0 mm
11:20 AM 65.1°F18.4°C 36.0°F2.2°C 34% 4.6 mph SE7.4 kmh SE 8.1 mph13.0 kmh 30.18 in1022.0 mb - 0.00 in0.0 mm 0.00 in0.0 mm
11:30 AM 64.6°F18.1°C 34.8°F1.6°C 33% 3.5 mph S5.6 kmh S 6.9 mph11.1 kmh 30.15 in1021.0 mb - 0.00 in0.0 mm 0.00 in0.0 mm
11:40 AM 66.2°F19.0°C 36.2°F2.3°C 33% 2.3 mph S3.7 kmh S 5.8 mph9.3 kmh 30.15 in1021.0 mb - 0.00 in0.0 mm 0.00 in0.0 mm
11:50 AM 65.4°F18.6°C 35.5°F1.9°C 33% 3.5 mph SE5.6 kmh SE 9.2 mph14.8 kmh 30.15 in1021.0 mb - 0.00 in0.0 mm 0.00 in0.0 mm
12:00 PM 65.7°F18.7°C 35.8°F2.1°C 33% 5.8 mph SE9.3 kmh SE 9.2 mph14.8 kmh 30.15 in1021.0 mb - 0.00 in0.0 mm 0.00 in0.0 mm
12:10 PM 66.4°F19.1°C 36.4°F2.4°C 33% 3.5 mph SSE5.6 kmh SSE 8.1 mph13.0 kmh 30.15 in1021.0 mb - 0.00 in0.0 mm 0.00 in0.0 mm
12:20 PM 66.7°F19.3°C 35.9°F2.2°C 32% 6.9 mph SE11.1 kmh SE 10.4 mph16.7 kmh 30.15 in1021.0 mb - 0.00 in0.0 mm 0.00 in0.0 mm
12:30 PM 67.8°F19.9°C 36.9°F2.7°C 32% 3.5 mph S5.6 kmh S 5.8 mph9.3 kmh 30.15 in1021.0 mb - 0.00 in0.0 mm 0.00 in0.0 mm
12:40 PM 67.5°F19.7°C 37.4°F3.0°C 33% 6.9 mph SSE11.1 kmh SSE 6.9 mph11.1 kmh 30.15 in1021.0 mb - 0.00 in0.0 mm 0.00 in0.0 mm
12:50 PM 66.9°F19.4°C 36.8°F2.7°C 33% 8.1 mph SE13.0 kmh SE 10.4 mph16.7 kmh 30.15 in1021.0 mb - 0.00 in0.0 mm 0.00 in0.0 mm
01:00 PM 67.4°F19.7°C 36.5°F2.5°C 32% 4.6 mph ESE7.4 kmh ESE 9.2 mph14.8 kmh 30.15 in1021.0 mb - 0.00 in0.0 mm 0.00 in0.0 mm
01:10 PM 67.6°F19.8°C 37.4°F3.0°C 33% 6.9 mph SE11.1 kmh SE 9.2 mph14.8 kmh 30.15 in1021.0 mb - 0.00 in0.0 mm 0.00 in0.0 mm
01:20 PM 66.8°F19.3°C 36.7°F2.6°C 33% 8.1 mph SE13.0 kmh SE 10.4 mph16.7 kmh 30.15 in1021.0 mb - 0.00 in0.0 mm 0.00 in0.0 mm
01:30 PM 65.3°F18.5°C 35.4°F1.9°C 33% 5.8 mph SE9.3 kmh SE 9.2 mph14.8 kmh 30.15 in1021.0 mb - 0.00 in0.0 mm 0.00 in0.0 mm
01:40 PM 66.9°F19.4°C 36.8°F2.7°C 33% 5.8 mph SE9.3 kmh SE 10.4 mph16.7 kmh 30.15 in1021.0 mb - 0.00 in0.0 mm 0.00 in0.0 mm
01:50 PM 67.4°F19.7°C 37.3°F2.9°C 33% 8.1 mph SE13.0 kmh SE 8.1 mph13.0 kmh 30.15 in1021.0 mb - 0.00 in0.0 mm 0.00 in0.0 mm
02:00 PM 67.0°F19.4°C 36.9°F2.7°C 33% 8.1 mph SE13.0 kmh SE 10.4 mph16.7 kmh 30.15 in1021.0 mb - 0.00 in0.0 mm 0.00 in0.0 mm
02:10 PM 67.4°F19.7°C 37.3°F2.9°C 33% 4.6 mph SE7.4 kmh SE 5.8 mph9.3 kmh 30.15 in1021.0 mb - 0.00 in0.0 mm 0.00 in0.0 mm
02:20 PM 67.7°F19.8°C 36.7°F2.6°C 32% 6.9 mph SE11.1 kmh SE 10.4 mph16.7 kmh 30.15 in1021.0 mb - 0.00 in0.0 mm 0.00 in0.0 mm
02:30 PM 66.8°F19.3°C 36.8°F2.7°C 33% 6.9 mph SE11.1 kmh SE 9.2 mph14.8 kmh 30.15 in1021.0 mb - 0.00 in0.0 mm 0.00 in0.0 mm
02:40 PM 66.8°F19.3°C 36.7°F2.6°C 33% 5.8 mph SE9.3 kmh SE 8.1 mph13.0 kmh 30.15 in1021.0 mb - 0.00 in0.0 mm 0.00 in0.0 mm
02:50 PM 66.3°F19.1°C 36.3°F2.4°C 33% 5.8 mph SE9.3 kmh SE 9.2 mph14.8 kmh 30.15 in1021.0 mb - 0.00 in0.0 mm 0.00 in0.0 mm
03:00 PM 66.6°F19.2°C 36.6°F2.6°C 33% 4.6 mph SE7.4 kmh SE 8.1 mph13.0 kmh 30.15 in1021.0 mb - 0.00 in0.0 mm 0.00 in0.0 mm
03:10 PM 65.7°F18.7°C 36.5°F2.5°C 34% 5.8 mph SE9.3 kmh SE 10.4 mph16.7 kmh 30.15 in1021.0 mb - 0.00 in0.0 mm 0.00 in0.0 mm
03:20 PM 65.7°F18.7°C 37.3°F2.9°C 35% 5.8 mph SE9.3 kmh SE 12.7 mph20.4 kmh 30.12 in1020.0 mb - 0.00 in0.0 mm 0.00 in0.0 mm
03:30 PM 64.1°F17.8°C 35.9°F2.2°C 35% 8.1 mph SE13.0 kmh SE 15.0 mph24.1 kmh 30.15 in1021.0 mb - 0.00 in0.0 mm 0.00 in0.0 mm
03:40 PM 64.7°F18.2°C 36.4°F2.4°C 35% 5.8 mph ESE9.3 kmh ESE 9.2 mph14.8 kmh 30.15 in1021.0 mb - 0.00 in0.0 mm 0.00 in0.0 mm
03:50 PM 63.6°F17.6°C 35.4°F1.9°C 35% 5.8 mph E9.3 kmh E 10.4 mph16.7 kmh 30.12 in1020.0 mb - 0.00 in0.0 mm 0.00 in0.0 mm
04:00 PM 62.8°F17.1°C 34.8°F1.6°C 35% 5.8 mph ESE9.3 kmh ESE 10.4 mph16.7 kmh 30.12 in1020.0 mb - 0.00 in0.0 mm 0.00 in0.0 mm
04:10 PM 62.7°F17.1°C 34.6°F1.4°C 35% 8.1 mph SE13.0 kmh SE 10.4 mph16.7 kmh 30.12 in1020.0 mb - 0.00 in0.0 mm 0.00 in0.0 mm
04:20 PM 63.0°F17.2°C 35.6°F2.0°C 36% 6.9 mph SE11.1 kmh SE 10.4 mph16.7 kmh 30.12 in1020.0 mb - 0.00 in0.0 mm 0.00 in0.0 mm
04:30 PM 61.4°F16.3°C 34.2°F1.2°C 36% 5.8 mph SE9.3 kmh SE 5.8 mph9.3 kmh 30.12 in1020.0 mb - 0.00 in0.0 mm 0.00 in0.0 mm
04:40 PM 62.2°F16.8°C 35.6°F2.0°C 37% 8.1 mph SE13.0 kmh SE 10.4 mph16.7 kmh 30.12 in1020.0 mb - 0.00 in0.0 mm 0.00 in0.0 mm
04:50 PM 61.3°F16.3°C 34.8°F1.6°C 37% 6.9 mph SE11.1 kmh SE 12.7 mph20.4 kmh 30.12 in1020.0 mb - 0.00 in0.0 mm 0.00 in0.0 mm
05:00 PM 60.5°F15.8°C 34.7°F1.5°C 38% 6.9 mph SSE11.1 kmh SSE 12.7 mph20.4 kmh 30.15 in1021.0 mb - 0.00 in0.0 mm 0.00 in0.0 mm
05:10 PM 59.8°F15.4°C 34.1°F1.2°C 38% 8.1 mph SE13.0 kmh SE 12.7 mph20.4 kmh 30.15 in1021.0 mb - 0.00 in0.0 mm 0.00 in0.0 mm
05:20 PM 60.1°F15.6°C 35.0°F1.7°C 39% 6.9 mph SSE11.1 kmh SSE 9.2 mph14.8 kmh 30.15 in1021.0 mb - 0.00 in0.0 mm 0.00 in0.0 mm
05:30 PM 60.7°F15.9°C 35.5°F1.9°C 39% 9.2 mph SE14.8 kmh SE 12.7 mph20.4 kmh 30.15 in1021.0 mb - 0.00 in0.0 mm 0.00 in0.0 mm
05:40 PM 59.9°F15.5°C 34.8°F1.6°C 39% 10.4 mph SE16.7 kmh SE 12.7 mph20.4 kmh 30.15 in1021.0 mb - 0.00 in0.0 mm 0.00 in0.0 mm
05:50 PM 58.7°F14.8°C 33.8°F1.0°C 39% 8.1 mph ESE13.0 kmh ESE 10.4 mph16.7 kmh 30.15 in1021.0 mb - 0.00 in0.0 mm 0.00 in0.0 mm
06:00 PM 58.5°F14.7°C 34.2°F1.2°C 40% 5.8 mph SE9.3 kmh SE 8.1 mph13.0 kmh 30.12 in1020.0 mb - 0.00 in0.0 mm 0.00 in0.0 mm
06:10 PM 58.3°F14.6°C 33.4°F0.8°C 39% 5.8 mph SE9.3 kmh SE 9.2 mph14.8 kmh 30.12 in1020.0 mb - 0.00 in0.0 mm 0.00 in0.0 mm
06:20 PM 58.3°F14.6°C 34.0°F1.1°C 40% 4.6 mph SE7.4 kmh SE 5.8 mph9.3 kmh 30.12 in1020.0 mb - 0.00 in0.0 mm 0.00 in0.0 mm
06:30 PM 58.1°F14.5°C 34.5°F1.4°C 41% 5.8 mph SE9.3 kmh SE 8.1 mph13.0 kmh 30.15 in1021.0 mb - 0.00 in0.0 mm 0.00 in0.0 mm
06:40 PM 57.6°F14.2°C 35.3°F1.8°C 43% 8.1 mph SE13.0 kmh SE 11.5 mph18.5 kmh 30.15 in1021.0 mb - 0.00 in0.0 mm 0.00 in0.0 mm
06:50 PM 57.2°F14.0°C 36.0°F2.2°C 45% 8.1 mph SE13.0 kmh SE 9.2 mph14.8 kmh 30.12 in1020.0 mb - 0.00 in0.0 mm 0.00 in0.0 mm
07:00 PM 56.7°F13.7°C 35.6°F2.0°C 45% 5.8 mph SE9.3 kmh SE 11.5 mph18.5 kmh 30.12 in1020.0 mb - 0.00 in0.0 mm 0.00 in0.0 mm
07:10 PM 56.3°F13.5°C 35.2°F1.8°C 45% 9.2 mph S14.8 kmh S 15.0 mph24.1 kmh 30.12 in1020.0 mb - 0.00 in0.0 mm 0.00 in0.0 mm
07:20 PM 55.9°F13.3°C 34.9°F1.6°C 45% 6.9 mph SE11.1 kmh SE 5.8 mph9.3 kmh 30.12 in1020.0 mb - 0.00 in0.0 mm 0.00 in0.0 mm
07:30 PM 55.4°F13.0°C 34.9°F1.6°C 46% 6.9 mph SSE11.1 kmh SSE 9.2 mph14.8 kmh 30.15 in1021.0 mb - 0.00 in0.0 mm 0.00 in0.0 mm
07:40 PM 55.0°F12.8°C 34.6°F1.4°C 46% 5.8 mph SE9.3 kmh SE 8.1 mph13.0 kmh 30.15 in1021.0 mb - 0.00 in0.0 mm 0.00 in0.0 mm
07:50 PM 54.7°F12.6°C 34.3°F1.3°C 46% 5.8 mph S9.3 kmh S 8.1 mph13.0 kmh 30.15 in1021.0 mb - 0.00 in0.0 mm 0.00 in0.0 mm
08:00 PM 54.5°F12.5°C 34.7°F1.5°C 47% 8.1 mph SSE13.0 kmh SSE 5.8 mph9.3 kmh 30.15 in1021.0 mb - 0.00 in0.0 mm 0.00 in0.0 mm
08:10 PM 54.3°F12.4°C 35.0°F1.7°C 48% 5.8 mph SE9.3 kmh SE 11.5 mph18.5 kmh 30.15 in1021.0 mb - 0.00 in0.0 mm 0.00 in0.0 mm
08:20 PM 53.8°F12.1°C 35.1°F1.7°C 49% 5.8 mph SE9.3 kmh SE 9.2 mph14.8 kmh 30.15 in1021.0 mb - 0.00 in0.0 mm 0.00 in0.0 mm
08:30 PM 53.6°F12.0°C 35.4°F1.9°C 50% 5.8 mph S9.3 kmh S 8.1 mph13.0 kmh 30.15 in1021.0 mb - 0.00 in0.0 mm 0.00 in0.0 mm
08:40 PM 53.4°F11.9°C 36.2°F2.3°C 52% 5.8 mph SE9.3 kmh SE 8.1 mph13.0 kmh 30.15 in1021.0 mb - 0.00 in0.0 mm 0.00 in0.0 mm
08:50 PM 53.2°F11.8°C 37.0°F2.8°C 54% 6.9 mph SE11.1 kmh SE 11.5 mph18.5 kmh 30.18 in1022.0 mb - 0.00 in0.0 mm 0.00 in0.0 mm
09:00 PM 52.9°F11.6°C 37.6°F3.1°C 56% 8.1 mph SE13.0 kmh SE 12.7 mph20.4 kmh 30.18 in1022.0 mb - 0.00 in0.0 mm 0.00 in0.0 mm
09:10 PM 52.5°F11.4°C 37.7°F3.2°C 57% 6.9 mph SSE11.1 kmh SSE 11.5 mph18.5 kmh 30.18 in1022.0 mb - 0.00 in0.0 mm 0.00 in0.0 mm
09:20 PM 52.0°F11.1°C 37.7°F3.2°C 58% 5.8 mph SSE9.3 kmh SSE 8.1 mph13.0 kmh 30.18 in1022.0 mb - 0.00 in0.0 mm 0.00 in0.0 mm
09:30 PM 51.6°F10.9°C 38.1°F3.4°C 60% 8.1 mph SE13.0 kmh SE 8.1 mph13.0 kmh 30.18 in1022.0 mb - 0.00 in0.0 mm 0.00 in0.0 mm
09:40 PM 51.1°F10.6°C 38.1°F3.4°C 61% 6.9 mph SSE11.1 kmh SSE 8.1 mph13.0 kmh 30.18 in1022.0 mb - 0.00 in0.0 mm 0.00 in0.0 mm
09:50 PM 50.8°F10.4°C 38.2°F3.4°C 62% 8.1 mph SSE13.0 kmh SSE 12.7 mph20.4 kmh 30.18 in1022.0 mb - 0.00 in0.0 mm 0.00 in0.0 mm
10:00 PM 50.5°F10.3°C 38.0°F3.3°C 62% 5.8 mph SSE9.3 kmh SSE 9.2 mph14.8 kmh 30.18 in1022.0 mb - 0.00 in0.0 mm 0.00 in0.0 mm
10:10 PM 50.2°F10.1°C 37.7°F3.2°C 62% 4.6 mph SE7.4 kmh SE 9.2 mph14.8 kmh 30.18 in1022.0 mb - 0.00 in0.0 mm 0.00 in0.0 mm
10:20 PM 49.9°F9.9°C 37.4°F3.0°C 62% 5.8 mph SE9.3 kmh SE 8.1 mph13.0 kmh 30.21 in1023.0 mb - 0.00 in0.0 mm 0.00 in0.0 mm
10:30 PM 49.6°F9.8°C 37.1°F2.8°C 62% 8.1 mph SSE13.0 kmh SSE 10.4 mph16.7 kmh 30.18 in1022.0 mb - 0.00 in0.0 mm 0.00 in0.0 mm
10:40 PM 49.5°F9.7°C 37.0°F2.8°C 62% 5.8 mph S9.3 kmh S 9.2 mph14.8 kmh 30.18 in1022.0 mb - 0.00 in0.0 mm 0.00 in0.0 mm
10:50 PM 49.0°F9.4°C 36.1°F2.3°C 61% 6.9 mph SE11.1 kmh SE 10.4 mph16.7 kmh 30.21 in1023.0 mb - 0.00 in0.0 mm 0.00 in0.0 mm
11:00 PM 48.7°F9.3°C 35.9°F2.2°C 61% 5.8 mph SE9.3 kmh SE 8.1 mph13.0 kmh 30.21 in1023.0 mb - 0.00 in0.0 mm 0.00 in0.0 mm
11:10 PM 48.4°F9.1°C 35.6°F2.0°C 61% 4.6 mph SSE7.4 kmh SSE 9.2 mph14.8 kmh 30.21 in1023.0 mb - 0.00 in0.0 mm 0.00 in0.0 mm
11:30 PM 48.0°F8.9°C 35.2°F1.8°C 61% 4.6 mph S7.4 kmh S 6.9 mph11.1 kmh 30.21 in1023.0 mb - 0.00 in0.0 mm 0.00 in0.0 mm
11:40 PM 47.8°F8.8°C 35.0°F1.7°C 61% 5.8 mph SSE9.3 kmh SSE 8.1 mph13.0 kmh 30.21 in1023.0 mb - 0.00 in0.0 mm 0.00 in0.0 mm
11:50 PM 47.5°F8.6°C 34.7°F1.5°C 61% 5.8 mph SSE9.3 kmh SSE 8.1 mph13.0 kmh 30.21 in1023.0 mb - 0.00 in0.0 mm 0.00 in0.0 mm